createdAt,value
2023-04-09T00:00:41.528Z,6.50
2023-04-09T00:03:08.427Z,6.50
2023-04-09T00:05:42.279Z,6.50
2023-04-09T00:08:09.043Z,6.50
2023-04-09T00:10:35.832Z,6.50
2023-04-09T00:13:02.618Z,6.50
2023-04-09T00:15:31.697Z,6.50
2023-04-09T00:17:59.470Z,6.50
2023-04-09T00:20:26.324Z,6.50
2023-04-09T00:22:53.160Z,6.50
2023-04-09T00:25:20.176Z,6.50
2023-04-09T00:27:47.106Z,6.50
2023-04-09T00:30:13.997Z,6.50
2023-04-09T00:32:41.071Z,6.50
2023-04-09T00:35:08.424Z,6.50
2023-04-09T00:37:35.426Z,6.50
2023-04-09T00:40:02.213Z,6.50
2023-04-09T00:42:33.016Z,6.50
2023-04-09T00:45:00.368Z,6.50
2023-04-09T00:47:31.198Z,6.40
2023-04-09T00:49:58.097Z,6.40
2023-04-09T00:52:25.491Z,6.40
2023-04-09T00:54:52.957Z,6.40
2023-04-09T00:57:20.290Z,6.40
2023-04-09T00:59:48.144Z,6.40
2023-04-09T01:02:15.014Z,6.30
2023-04-09T01:04:42.919Z,6.30
2023-04-09T01:07:13.128Z,6.30
2023-04-09T01:09:45.922Z,6.30
2023-04-09T01:12:30.103Z,6.30
2023-04-09T01:15:08.330Z,6.20
2023-04-09T01:17:38.264Z,6.20
2023-04-09T01:20:37.238Z,6.20
2023-04-09T01:23:26.022Z,6.20
2023-04-09T01:25:55.692Z,6.20
2023-04-09T01:28:39.331Z,6.20
2023-04-09T01:31:15.367Z,6.20
2023-04-09T01:33:42.859Z,6.10
2023-04-09T01:36:10.347Z,6.20
2023-04-09T01:38:40.220Z,6.10
2023-04-09T01:41:09.490Z,6.20
2023-04-09T01:43:38.102Z,6.20
2023-04-09T01:46:05.140Z,6.10
2023-04-09T01:48:32.826Z,6.10
2023-04-09T01:50:59.789Z,6.10
2023-04-09T01:53:31.008Z,6.10
2023-04-09T01:56:01.633Z,6.10
2023-04-09T01:58:28.518Z,6.00
2023-04-09T02:01:04.087Z,6.00
2023-04-09T02:03:37.985Z,6.00
2023-04-09T02:06:17.308Z,5.90
2023-04-09T02:08:46.838Z,5.90
2023-04-09T02:11:15.926Z,5.90
2023-04-09T02:13:44.183Z,5.80
2023-04-09T02:16:13.857Z,5.80
2023-04-09T02:18:40.798Z,5.80
2023-04-09T02:21:07.524Z,5.80
2023-04-09T02:23:35.092Z,5.80
2023-04-09T02:26:02.329Z,5.80
2023-04-09T02:28:29.089Z,5.80
2023-04-09T02:30:55.833Z,5.80
2023-04-09T02:33:22.570Z,5.80
2023-04-09T02:35:49.348Z,5.80
2023-04-09T02:38:16.221Z,5.80
2023-04-09T02:40:43.133Z,5.70
2023-04-09T02:43:10.297Z,5.70
2023-04-09T02:45:37.091Z,5.70
2023-04-09T02:48:04.049Z,5.70
2023-04-09T02:50:30.844Z,5.70
2023-04-09T02:52:57.645Z,5.70
2023-04-09T02:55:24.381Z,5.70
2023-04-09T02:57:51.093Z,5.70
2023-04-09T03:00:17.818Z,5.70
2023-04-09T03:02:44.648Z,5.70
2023-04-09T03:05:11.681Z,5.70
2023-04-09T03:07:38.412Z,5.70
2023-04-09T03:10:05.639Z,5.70
2023-04-09T03:12:32.348Z,5.70
2023-04-09T03:14:59.163Z,5.70
2023-04-09T03:17:27.316Z,5.60
2023-04-09T03:19:54.321Z,5.60
2023-04-09T03:22:21.092Z,5.60
2023-04-09T03:24:48.036Z,5.60
2023-04-09T03:27:14.977Z,5.50
2023-04-09T03:29:41.747Z,5.50
2023-04-09T03:32:08.485Z,5.40
2023-04-09T03:34:35.490Z,5.40
2023-04-09T03:37:02.505Z,5.30
2023-04-09T03:39:30.953Z,5.30
2023-04-09T03:41:59.024Z,5.20
2023-04-09T03:44:25.879Z,5.10
2023-04-09T03:46:52.821Z,5.00
2023-04-09T03:49:19.721Z,4.80
2023-04-09T03:51:46.575Z,4.70
2023-04-09T03:54:13.464Z,4.50
2023-04-09T03:56:40.271Z,4.20
2023-04-09T03:59:07.062Z,4.20
2023-04-09T04:01:34.933Z,4.10
2023-04-09T04:04:02.097Z,4.00
2023-04-09T04:06:29.029Z,3.90
2023-04-09T04:08:55.731Z,3.90
2023-04-09T04:11:22.465Z,3.80
2023-04-09T04:13:49.154Z,3.70
2023-04-09T04:16:15.995Z,3.60
2023-04-09T04:18:42.756Z,3.60
2023-04-09T04:21:16.381Z,3.50
2023-04-09T04:23:43.107Z,3.50
2023-04-09T04:26:10.856Z,3.50
2023-04-09T04:28:38.280Z,3.40
2023-04-09T04:31:12.536Z,3.50
2023-04-09T04:33:41.253Z,3.50
2023-04-09T04:36:12.749Z,3.50
2023-04-09T04:38:41.267Z,3.60
2023-04-09T04:41:08.390Z,3.50
2023-04-09T04:43:35.416Z,3.50
2023-04-09T04:46:02.237Z,3.50
2023-04-09T04:48:29.327Z,3.50
2023-04-09T04:50:58.013Z,3.40
2023-04-09T04:53:25.189Z,3.30
2023-04-09T04:55:51.918Z,3.30
2023-04-09T04:58:19.188Z,3.20
2023-04-09T05:00:46.477Z,3.20
2023-04-09T05:03:13.889Z,3.20
2023-04-09T05:05:40.719Z,3.10
2023-04-09T05:08:07.844Z,3.10
2023-04-09T05:10:43.586Z,3.10
2023-04-09T05:13:13.704Z,3.10
2023-04-09T05:15:41.203Z,3.10
2023-04-09T05:18:08.720Z,3.20
2023-04-09T05:20:35.779Z,3.20
2023-04-09T05:23:02.633Z,3.20
2023-04-09T05:25:29.340Z,3.20
2023-04-09T05:27:56.407Z,3.20
2023-04-09T05:30:23.168Z,3.20
2023-04-09T05:32:49.948Z,3.30
2023-04-09T05:35:16.708Z,3.30
2023-04-09T05:37:43.427Z,3.30
2023-04-09T05:40:10.922Z,3.40
2023-04-09T05:42:37.977Z,3.60
2023-04-09T05:45:05.617Z,3.60
2023-04-09T05:47:32.581Z,3.80
2023-04-09T05:49:59.310Z,3.80
2023-04-09T05:52:26.868Z,3.90
2023-04-09T05:54:53.546Z,4.00
2023-04-09T05:57:20.254Z,4.10
2023-04-09T05:59:46.989Z,4.30
2023-04-09T06:02:13.864Z,4.30
2023-04-09T06:04:40.774Z,4.40
2023-04-09T06:07:07.528Z,4.50
2023-04-09T06:09:34.259Z,4.70
2023-04-09T06:12:00.996Z,4.70
2023-04-09T06:14:27.768Z,4.90
2023-04-09T06:16:54.457Z,5.00
2023-04-09T06:19:22.293Z,5.10
2023-04-09T06:21:49.017Z,5.20
2023-04-09T06:24:15.744Z,5.40
2023-04-09T06:26:42.505Z,5.50
2023-04-09T06:29:09.245Z,5.70
2023-04-09T06:31:36.008Z,5.80
2023-04-09T06:34:02.743Z,5.90
2023-04-09T06:36:30.338Z,6.00
2023-04-09T06:38:57.651Z,6.10
2023-04-09T06:41:24.395Z,6.20
2023-04-09T06:43:51.280Z,6.30
2023-04-09T06:46:20.332Z,6.50
2023-04-09T06:48:47.697Z,6.60
2023-04-09T06:51:15.052Z,6.80
2023-04-09T06:53:42.207Z,6.90
2023-04-09T06:56:09.452Z,7.00
2023-04-09T06:58:36.656Z,7.20
2023-04-09T07:01:03.610Z,7.30
2023-04-09T07:03:31.028Z,7.50
2023-04-09T07:05:58.928Z,7.60
2023-04-09T07:08:26.053Z,7.70
2023-04-09T07:10:52.788Z,7.70
2023-04-09T07:13:19.613Z,7.90
2023-04-09T07:15:46.431Z,8.00
2023-04-09T07:18:13.253Z,8.10
2023-04-09T07:20:39.995Z,8.30
2023-04-09T07:23:06.699Z,8.40
2023-04-09T07:25:33.997Z,8.60
2023-04-09T07:28:00.740Z,8.70
2023-04-09T07:30:27.511Z,8.90
2023-04-09T07:32:54.430Z,9.90
2023-04-09T07:35:21.810Z,11.80
2023-04-09T07:37:48.592Z,13.80
2023-04-09T07:40:15.377Z,15.70
2023-04-09T07:42:42.509Z,18.40
2023-04-09T07:45:09.683Z,20.00
2023-04-09T07:47:36.478Z,20.90
2023-04-09T07:50:03.202Z,22.70
2023-04-09T07:52:29.907Z,23.80
2023-04-09T07:54:56.571Z,24.50
2023-04-09T07:57:23.326Z,24.20
2023-04-09T07:59:50.190Z,23.60
2023-04-09T08:02:17.822Z,23.60
2023-04-09T08:04:44.898Z,24.40
2023-04-09T08:07:11.888Z,25.40
2023-04-09T08:09:38.561Z,25.80
2023-04-09T08:12:05.499Z,26.70
2023-04-09T08:14:32.320Z,26.80
2023-04-09T08:17:00.271Z,27.50
2023-04-09T08:19:27.141Z,27.40
2023-04-09T08:21:53.830Z,27.60
2023-04-09T08:24:21.444Z,27.60
2023-04-09T08:26:48.182Z,28.00
2023-04-09T08:31:42.525Z,29.00
2023-04-09T08:34:09.407Z,28.70
2023-04-09T08:36:36.227Z,28.50
2023-04-09T08:39:04.260Z,28.60
2023-04-09T08:41:31.526Z,29.20
2023-04-09T08:43:59.776Z,28.50
2023-04-09T08:46:27.723Z,28.30
2023-04-09T08:48:55.044Z,28.70
2023-04-09T08:51:23.566Z,28.20
2023-04-09T08:53:56.527Z,28.80
2023-04-09T08:56:24.034Z,29.20
2023-04-09T08:58:51.415Z,29.20
2023-04-09T09:01:25.507Z,29.90
2023-04-09T09:03:56.877Z,29.80
2023-04-09T09:06:29.298Z,30.10
2023-04-09T09:09:06.666Z,30.80
2023-04-09T09:11:38.247Z,31.10
2023-04-09T09:14:16.298Z,31.10
2023-04-09T09:17:03.782Z,31.90
2023-04-09T09:19:33.475Z,32.60
2023-04-09T09:22:04.721Z,32.60
2023-04-09T09:24:34.984Z,31.30
2023-04-09T09:27:02.680Z,31.20
2023-04-09T09:29:29.691Z,31.00
2023-04-09T09:31:56.715Z,31.80
2023-04-09T09:34:24.868Z,31.50
2023-04-09T09:36:51.709Z,32.40
2023-04-09T09:39:18.527Z,32.00
2023-04-09T09:41:47.354Z,31.90
2023-04-09T09:44:31.892Z,32.10
2023-04-09T09:46:59.408Z,31.50
2023-04-09T09:49:26.298Z,30.80
2023-04-09T09:51:55.633Z,30.70
2023-04-09T09:54:25.487Z,31.30
2023-04-09T09:56:56.016Z,30.80
2023-04-09T09:59:32.048Z,31.20
2023-04-09T10:02:05.989Z,31.20
2023-04-09T10:04:38.214Z,28.90
2023-04-09T10:07:07.064Z,27.00
2023-04-09T10:09:42.923Z,24.90
2023-04-09T10:12:11.948Z,22.70
2023-04-09T10:14:39.697Z,21.20
2023-04-09T10:17:06.913Z,19.90
2023-04-09T10:19:38.753Z,19.10
2023-04-09T10:22:17.875Z,19.60
2023-04-09T10:24:46.062Z,22.30
2023-04-09T10:27:16.756Z,22.40
2023-04-09T10:29:49.000Z,22.70
2023-04-09T10:32:26.345Z,24.30
2023-04-09T10:34:57.667Z,25.20
2023-04-09T10:37:28.707Z,27.40
2023-04-09T10:39:57.725Z,27.50
2023-04-09T10:42:32.706Z,26.80
2023-04-09T10:45:11.614Z,26.80
2023-04-09T10:47:43.109Z,27.20
2023-04-09T10:50:27.862Z,27.40
2023-04-09T10:53:00.704Z,26.50
2023-04-09T10:55:31.446Z,26.30
2023-04-09T10:57:58.813Z,27.00
2023-04-09T11:00:25.690Z,27.00
2023-04-09T11:03:40.309Z,26.80
2023-04-09T11:06:10.572Z,25.30
2023-04-09T11:08:38.697Z,23.70
2023-04-09T11:11:05.997Z,22.60
2023-04-09T11:13:34.153Z,21.10
2023-04-09T11:16:03.423Z,20.50
2023-04-09T11:18:30.871Z,19.60
2023-04-09T11:20:59.552Z,20.00
2023-04-09T11:23:26.775Z,19.60
2023-04-09T11:25:54.193Z,19.40
2023-04-09T11:28:21.444Z,19.40
2023-04-09T11:30:50.890Z,19.80
2023-04-09T11:33:19.773Z,20.50
2023-04-09T11:35:47.668Z,20.10
2023-04-09T11:38:14.668Z,19.60
2023-04-09T11:40:49.914Z,19.40
2023-04-09T11:43:17.896Z,20.00
2023-04-09T11:45:47.092Z,20.80
2023-04-09T11:48:15.062Z,21.00
2023-04-09T11:50:42.018Z,21.70
2023-04-09T11:53:19.096Z,21.80
2023-04-09T11:55:49.594Z,21.50
2023-04-09T11:58:16.666Z,21.40
2023-04-09T12:00:43.496Z,21.50
2023-04-09T12:03:10.913Z,21.70
2023-04-09T12:05:40.634Z,21.80
2023-04-09T12:08:09.101Z,21.20
2023-04-09T12:10:38.602Z,20.50
2023-04-09T12:13:13.692Z,19.90
2023-04-09T12:15:43.429Z,19.80
2023-04-09T12:18:13.752Z,20.30
2023-04-09T12:20:46.472Z,21.10
2023-04-09T12:23:13.892Z,21.20
2023-04-09T12:25:42.774Z,21.10
2023-04-09T12:28:13.729Z,21.30
2023-04-09T12:30:40.676Z,20.80
2023-04-09T12:33:10.278Z,20.50
2023-04-09T12:35:38.267Z,20.40
2023-04-09T12:38:05.275Z,20.50
2023-04-09T12:40:32.107Z,20.10
2023-04-09T12:42:58.899Z,20.20
2023-04-09T12:45:25.899Z,20.00
2023-04-09T12:47:53.054Z,19.60
2023-04-09T12:50:19.967Z,19.10
2023-04-09T12:52:46.816Z,18.80
2023-04-09T12:55:14.932Z,18.50
2023-04-09T12:57:44.997Z,18.00
2023-04-09T13:00:12.704Z,17.70
2023-04-09T13:02:41.709Z,18.10
2023-04-09T13:05:09.050Z,18.30
2023-04-09T13:07:35.856Z,17.90
2023-04-09T13:10:02.651Z,18.10
2023-04-09T13:12:30.172Z,18.60
2023-04-09T13:14:56.962Z,19.00
2023-04-09T13:17:23.894Z,19.50
2023-04-09T13:19:51.875Z,19.70
2023-04-09T13:22:19.286Z,19.60
2023-04-09T13:24:46.102Z,20.00
2023-04-09T13:27:12.865Z,20.00
2023-04-09T13:29:39.753Z,20.30
2023-04-09T13:32:10.910Z,19.70
2023-04-09T13:34:39.674Z,19.10
2023-04-09T13:37:06.969Z,18.60
2023-04-09T13:39:33.934Z,18.60
2023-04-09T13:42:07.345Z,18.60
2023-04-09T13:44:42.287Z,18.40
2023-04-09T13:47:11.211Z,17.90
2023-04-09T13:49:38.426Z,18.10
2023-04-09T13:52:05.539Z,18.40
2023-04-09T13:54:33.634Z,18.70
2023-04-09T13:57:00.709Z,19.40
2023-04-09T13:59:27.637Z,19.60
2023-04-09T14:01:54.426Z,19.70
2023-04-09T14:04:21.775Z,19.90
2023-04-09T14:06:48.540Z,20.30
2023-04-09T14:09:15.567Z,20.20
2023-04-09T14:11:42.286Z,20.20
2023-04-09T14:14:09.368Z,20.40
2023-04-09T14:16:36.302Z,20.40
2023-04-09T14:19:03.251Z,20.10
2023-04-09T14:21:29.984Z,19.70
2023-04-09T14:23:56.765Z,19.40
2023-04-09T14:26:24.329Z,19.00
2023-04-09T14:28:51.710Z,18.70
2023-04-09T14:31:21.839Z,18.40
2023-04-09T14:33:49.107Z,18.20
2023-04-09T14:36:16.765Z,17.60
2023-04-09T14:38:43.585Z,17.30
2023-04-09T14:41:10.350Z,16.80
2023-04-09T14:43:37.207Z,17.00
2023-04-09T14:46:06.406Z,17.10
2023-04-09T14:48:33.167Z,17.20
2023-04-09T14:50:59.853Z,17.20
2023-04-09T14:53:26.746Z,17.30
2023-04-09T14:55:53.492Z,17.50
2023-04-09T14:58:20.807Z,17.80
2023-04-09T15:00:47.812Z,17.80
2023-04-09T15:03:15.044Z,18.10
2023-04-09T15:05:41.937Z,18.00
2023-04-09T15:08:08.602Z,17.90
2023-04-09T15:10:36.755Z,17.70
2023-04-09T15:13:03.500Z,17.30
2023-04-09T15:15:30.630Z,17.10
2023-04-09T15:17:57.356Z,16.70
2023-04-09T15:20:24.135Z,16.50
2023-04-09T15:22:51.251Z,16.30
2023-04-09T15:25:18.019Z,16.00
2023-04-09T15:27:46.492Z,15.80
2023-04-09T15:30:13.234Z,15.50
2023-04-09T15:32:40.113Z,15.40
2023-04-09T15:35:07.160Z,15.10
2023-04-09T15:37:33.904Z,14.80
2023-04-09T15:40:00.585Z,14.60
2023-04-09T15:42:27.406Z,14.50
2023-04-09T15:44:55.068Z,14.40
2023-04-09T15:47:21.841Z,14.30
2023-04-09T15:49:48.538Z,14.40
2023-04-09T15:52:15.345Z,14.40
2023-04-09T15:54:42.095Z,14.50
2023-04-09T15:57:08.852Z,14.40
2023-04-09T15:59:35.656Z,14.30
2023-04-09T16:02:04.447Z,14.20
2023-04-09T16:04:31.290Z,14.10
2023-04-09T16:06:58.206Z,14.00
2023-04-09T16:09:24.956Z,13.90
2023-04-09T16:11:51.646Z,14.00
2023-04-09T16:14:18.396Z,14.00
2023-04-09T16:16:49.559Z,14.00
2023-04-09T16:19:17.659Z,14.10
2023-04-09T16:21:45.481Z,14.10
2023-04-09T16:24:12.803Z,14.10
2023-04-09T16:26:43.852Z,14.10
2023-04-09T16:29:11.117Z,14.20
2023-04-09T16:31:39.244Z,14.10
2023-04-09T16:34:06.018Z,14.10
2023-04-09T16:36:36.885Z,14.10
2023-04-09T16:39:06.645Z,14.00
2023-04-09T16:41:34.899Z,14.10
2023-04-09T16:44:03.192Z,14.00
2023-04-09T16:46:29.980Z,13.90
2023-04-09T16:48:56.874Z,13.90
2023-04-09T16:51:25.058Z,13.90
2023-04-09T16:53:51.910Z,13.80
2023-04-09T16:56:28.528Z,13.70
2023-04-09T16:58:55.720Z,13.70
2023-04-09T17:01:22.724Z,13.60
2023-04-09T17:03:49.747Z,13.50
2023-04-09T17:06:16.653Z,13.50
2023-04-09T17:08:43.405Z,13.40
2023-04-09T17:11:14.032Z,13.40
2023-04-09T17:13:40.730Z,13.30
2023-04-09T17:16:08.091Z,13.20
2023-04-09T17:18:34.786Z,13.10
2023-04-09T17:21:01.487Z,13.10
2023-04-09T17:23:28.216Z,13.00
2023-04-09T17:25:54.933Z,12.90
2023-04-09T17:28:21.938Z,12.70
2023-04-09T17:30:48.908Z,12.70
2023-04-09T17:33:15.924Z,12.50
2023-04-09T17:35:43.366Z,12.40
2023-04-09T17:38:11.979Z,12.30
2023-04-09T17:40:38.854Z,12.20
2023-04-09T17:43:07.751Z,12.00
2023-04-09T17:45:34.522Z,11.90
2023-04-09T17:48:01.231Z,11.70
2023-04-09T17:52:55.461Z,11.40
2023-04-09T17:55:23.393Z,11.30
2023-04-09T17:57:50.548Z,11.20
2023-04-09T18:00:17.388Z,11.00
2023-04-09T18:02:44.994Z,10.80
2023-04-09T18:05:11.924Z,10.70
2023-04-09T18:07:38.760Z,10.50
2023-04-09T18:10:06.266Z,10.40
2023-04-09T18:12:33.120Z,10.30
2023-04-09T18:14:59.869Z,10.10
2023-04-09T18:17:26.729Z,9.90
2023-04-09T18:19:54.715Z,9.80
2023-04-09T18:22:21.826Z,9.70
2023-04-09T18:24:48.743Z,9.60
2023-04-09T18:27:16.272Z,9.60
2023-04-09T18:29:42.966Z,9.50
2023-04-09T18:32:09.726Z,9.50
2023-04-09T18:34:37.418Z,9.50
2023-04-09T18:37:04.132Z,9.50
2023-04-09T18:39:31.000Z,9.40
2023-04-09T18:41:57.954Z,9.40
2023-04-09T18:44:24.741Z,9.30
2023-04-09T18:46:52.211Z,9.30
2023-04-09T18:49:19.033Z,9.20
2023-04-09T18:51:45.877Z,9.10
2023-04-09T18:54:12.590Z,9.00
2023-04-09T18:56:39.313Z,8.90
2023-04-09T18:59:06.338Z,8.80
2023-04-09T19:01:33.134Z,8.70
2023-04-09T19:04:00.208Z,8.50
2023-04-09T19:06:27.971Z,8.40
2023-04-09T19:08:58.216Z,8.30
2023-04-09T19:11:25.941Z,8.10
2023-04-09T19:13:52.672Z,8.00
2023-04-09T19:16:20.720Z,7.90
2023-04-09T19:18:47.778Z,7.80
2023-04-09T19:21:14.559Z,7.60
2023-04-09T19:23:41.261Z,7.60
2023-04-09T19:26:09.749Z,7.50
2023-04-09T19:28:36.788Z,7.50
2023-04-09T19:31:06.353Z,7.30
2023-04-09T19:33:33.113Z,7.20
2023-04-09T19:35:59.860Z,7.10
2023-04-09T19:38:26.739Z,7.00
2023-04-09T19:40:53.488Z,6.90
2023-04-09T19:43:20.305Z,6.70
2023-04-09T19:45:47.092Z,6.60
2023-04-09T19:48:13.884Z,6.60
2023-04-09T19:50:41.253Z,6.60
2023-04-09T19:53:07.998Z,6.60
2023-04-09T19:55:35.231Z,6.50
2023-04-09T19:58:02.472Z,6.50
2023-04-09T20:00:29.661Z,6.50
2023-04-09T20:02:57.323Z,6.40
2023-04-09T20:05:24.892Z,6.30
2023-04-09T20:07:52.599Z,6.20
2023-04-09T20:10:19.809Z,6.20
2023-04-09T20:12:50.311Z,6.10
2023-04-09T20:15:19.986Z,6.10
2023-04-09T20:17:50.948Z,6.10
2023-04-09T20:20:20.062Z,5.90
2023-04-09T20:22:56.455Z,5.90
2023-04-09T20:25:24.648Z,5.90
2023-04-09T20:27:54.748Z,5.80
2023-04-09T20:30:22.739Z,5.60
2023-04-09T20:32:49.728Z,5.50
2023-04-09T20:35:16.685Z,5.40
2023-04-09T20:37:44.119Z,5.30
2023-04-09T20:40:12.028Z,5.30
2023-04-09T20:42:40.843Z,5.30
2023-04-09T20:45:08.764Z,5.40
2023-04-09T20:47:35.710Z,5.30
2023-04-09T20:50:03.339Z,5.20
2023-04-09T20:52:30.552Z,5.10
2023-04-09T20:54:57.695Z,5.00
2023-04-09T20:57:24.454Z,4.90
2023-04-09T20:59:52.822Z,4.80
2023-04-09T21:02:19.910Z,4.80
2023-04-09T21:04:47.073Z,4.60
2023-04-09T21:07:14.206Z,4.60
2023-04-09T21:09:41.083Z,4.60
2023-04-09T21:12:07.832Z,4.60
2023-04-09T21:14:34.615Z,4.60
2023-04-09T21:17:01.391Z,4.60
2023-04-09T21:19:28.280Z,4.50
2023-04-09T21:21:55.089Z,4.40
2023-04-09T21:24:21.840Z,4.40
2023-04-09T21:26:51.594Z,4.40
2023-04-09T21:29:21.094Z,4.40
2023-04-09T21:31:48.723Z,4.30
2023-04-09T21:34:16.076Z,4.20
2023-04-09T21:36:44.952Z,4.10
2023-04-09T21:39:12.164Z,4.10
2023-04-09T21:41:39.097Z,4.20
2023-04-09T21:44:08.342Z,4.10
2023-04-09T21:46:36.976Z,4.10
2023-04-09T21:49:04.366Z,4.00
2023-04-09T21:51:31.578Z,4.00
2023-04-09T21:54:11.375Z,4.00
2023-04-09T21:56:38.813Z,4.00
2023-04-09T21:59:08.527Z,3.90
2023-04-09T22:01:35.551Z,3.80
2023-04-09T22:04:02.672Z,3.70
2023-04-09T22:06:29.651Z,3.60
2023-04-09T22:08:57.968Z,3.60
2023-04-09T22:11:27.547Z,3.60
2023-04-09T22:13:56.241Z,3.50
2023-04-09T22:16:25.152Z,3.40
2023-04-09T22:18:53.369Z,3.40
2023-04-09T22:21:20.776Z,3.30
2023-04-09T22:23:47.491Z,3.20
2023-04-09T22:26:14.339Z,3.30
2023-04-09T22:28:41.090Z,3.20
2023-04-09T22:31:08.024Z,3.10
2023-04-09T22:33:34.904Z,3.20
2023-04-09T22:36:01.850Z,3.20
2023-04-09T22:38:28.691Z,3.30
2023-04-09T22:40:58.640Z,3.30
2023-04-09T22:43:25.409Z,3.20
2023-04-09T22:45:54.292Z,3.20
2023-04-09T22:48:22.066Z,3.10
2023-04-09T22:50:49.799Z,3.10
2023-04-09T22:53:19.944Z,3.00
2023-04-09T22:55:51.527Z,2.90
2023-04-09T22:58:18.935Z,2.90
2023-04-09T23:00:47.169Z,2.80
2023-04-09T23:03:14.303Z,2.80
2023-04-09T23:05:41.464Z,2.80
2023-04-09T23:08:08.374Z,2.80
2023-04-09T23:10:35.613Z,2.80
2023-04-09T23:13:02.558Z,2.80
2023-04-09T23:15:29.529Z,2.80
2023-04-09T23:17:56.714Z,2.80
2023-04-09T23:20:23.854Z,2.80
2023-04-09T23:22:50.913Z,2.70
2023-04-09T23:25:17.990Z,2.80
2023-04-09T23:27:44.949Z,2.80
2023-04-09T23:30:16.641Z,2.80
2023-04-09T23:32:44.780Z,2.80
2023-04-09T23:35:11.764Z,2.70
2023-04-09T23:37:39.689Z,2.60
2023-04-09T23:40:07.523Z,2.50
2023-04-09T23:42:34.537Z,2.30
2023-04-09T23:45:04.082Z,2.30
2023-04-09T23:47:35.657Z,2.30
2023-04-09T23:50:07.516Z,2.30
2023-04-09T23:52:35.918Z,2.20
2023-04-09T23:55:03.531Z,2.20
2023-04-09T23:57:30.337Z,2.10
2023-04-09T23:59:57.424Z,2.10
